sensor_id;sensor_type;location;lat;lon;timestamp;temperature;humidity
17671;DHT22;8954;48.694;8.940;2023-02-07T00:01:52;0.00;99.90
17671;DHT22;8954;48.694;8.940;2023-02-07T00:04:18;0.00;99.90
17671;DHT22;8954;48.694;8.940;2023-02-07T00:06:44;-0.20;99.90
17671;DHT22;8954;48.694;8.940;2023-02-07T00:09:10;-0.30;99.90
17671;DHT22;8954;48.694;8.940;2023-02-07T00:11:38;-0.40;99.90
17671;DHT22;8954;48.694;8.940;2023-02-07T00:14:06;-0.50;99.90
17671;DHT22;8954;48.694;8.940;2023-02-07T00:16:32;-0.60;99.90
17671;DHT22;8954;48.694;8.940;2023-02-07T00:18:57;-0.70;99.90
17671;DHT22;8954;48.694;8.940;2023-02-07T00:21:24;-0.70;99.90
17671;DHT22;8954;48.694;8.940;2023-02-07T00:23:51;-0.80;99.90
17671;DHT22;8954;48.694;8.940;2023-02-07T00:26:18;-0.90;99.90
17671;DHT22;8954;48.694;8.940;2023-02-07T00:28:45;-0.90;99.90
17671;DHT22;8954;48.694;8.940;2023-02-07T00:31:21;-1.00;99.90
17671;DHT22;8954;48.694;8.940;2023-02-07T00:33:48;-1.10;99.90
17671;DHT22;8954;48.694;8.940;2023-02-07T00:36:16;-1.30;99.90
17671;DHT22;8954;48.694;8.940;2023-02-07T00:38:43;-1.30;99.90
17671;DHT22;8954;48.694;8.940;2023-02-07T00:41:10;-1.40;99.90
17671;DHT22;8954;48.694;8.940;2023-02-07T00:43:39;-1.50;99.90
17671;DHT22;8954;48.694;8.940;2023-02-07T00:46:05;-1.50;99.90
17671;DHT22;8954;48.694;8.940;2023-02-07T00:48:31;-1.60;99.90
17671;DHT22;8954;48.694;8.940;2023-02-07T00:50:57;-1.60;99.90
17671;DHT22;8954;48.694;8.940;2023-02-07T00:53:24;-1.70;99.90
17671;DHT22;8954;48.694;8.940;2023-02-07T00:55:50;-1.70;99.90
17671;DHT22;8954;48.694;8.940;2023-02-07T00:58:15;-1.80;99.90
17671;DHT22;8954;48.694;8.940;2023-02-07T01:00:41;-1.80;99.90
17671;DHT22;8954;48.694;8.940;2023-02-07T01:03:07;-1.80;99.90
17671;DHT22;8954;48.694;8.940;2023-02-07T01:05:32;-1.80;99.90
17671;DHT22;8954;48.694;8.940;2023-02-07T01:07:58;-1.80;99.90
17671;DHT22;8954;48.694;8.940;2023-02-07T01:10:23;-1.80;99.90
17671;DHT22;8954;48.694;8.940;2023-02-07T01:12:50;-1.90;99.90
17671;DHT22;8954;48.694;8.940;2023-02-07T01:15:16;-1.90;99.90
17671;DHT22;8954;48.694;8.940;2023-02-07T01:17:42;-2.00;99.90
17671;DHT22;8954;48.694;8.940;2023-02-07T01:20:08;-2.00;99.90
17671;DHT22;8954;48.694;8.940;2023-02-07T01:22:35;-2.00;99.90
17671;DHT22;8954;48.694;8.940;2023-02-07T01:25:00;-2.00;99.90
17671;DHT22;8954;48.694;8.940;2023-02-07T01:27:26;-2.10;99.90
17671;DHT22;8954;48.694;8.940;2023-02-07T01:29:52;-2.10;99.90
17671;DHT22;8954;48.694;8.940;2023-02-07T01:32:17;-2.00;99.90
17671;DHT22;8954;48.694;8.940;2023-02-07T01:34:43;-2.10;99.90
17671;DHT22;8954;48.694;8.940;2023-02-07T01:37:08;-2.10;99.90
17671;DHT22;8954;48.694;8.940;2023-02-07T01:39:34;-2.20;99.90
17671;DHT22;8954;48.694;8.940;2023-02-07T01:42:00;-2.20;99.90
17671;DHT22;8954;48.694;8.940;2023-02-07T01:46:52;-2.20;99.90
17671;DHT22;8954;48.694;8.940;2023-02-07T01:49:22;-2.20;99.90
17671;DHT22;8954;48.694;8.940;2023-02-07T01:51:55;-2.10;99.90
17671;DHT22;8954;48.694;8.940;2023-02-07T01:54:24;-2.10;99.90
17671;DHT22;8954;48.694;8.940;2023-02-07T01:56:58;-2.00;99.90
17671;DHT22;8954;48.694;8.940;2023-02-07T01:59:27;-1.90;99.90
17671;DHT22;8954;48.694;8.940;2023-02-07T02:01:54;-1.80;99.90
17671;DHT22;8954;48.694;8.940;2023-02-07T02:04:20;-1.70;99.90
17671;DHT22;8954;48.694;8.940;2023-02-07T02:06:46;-1.50;99.90
17671;DHT22;8954;48.694;8.940;2023-02-07T02:09:15;-1.50;99.90
17671;DHT22;8954;48.694;8.940;2023-02-07T02:12:00;-1.50;99.90
17671;DHT22;8954;48.694;8.940;2023-02-07T02:20:47;-1.20;99.90
17671;DHT22;8954;48.694;8.940;2023-02-07T02:34:47;-1.80;99.90
17671;DHT22;8954;48.694;8.940;2023-02-07T02:38:00;-1.80;99.90
17671;DHT22;8954;48.694;8.940;2023-02-07T02:41:05;-1.80;99.90
17671;DHT22;8954;48.694;8.940;2023-02-07T02:43:45;-2.00;99.90
17671;DHT22;8954;48.694;8.940;2023-02-07T02:46:16;-2.10;99.90
17671;DHT22;8954;48.694;8.940;2023-02-07T02:48:43;-2.10;99.90
17671;DHT22;8954;48.694;8.940;2023-02-07T02:51:09;-2.20;99.90
17671;DHT22;8954;48.694;8.940;2023-02-07T02:53:35;-2.30;99.90
17671;DHT22;8954;48.694;8.940;2023-02-07T02:56:23;-2.30;99.90
17671;DHT22;8954;48.694;8.940;2023-02-07T02:59:06;-2.30;99.90
17671;DHT22;8954;48.694;8.940;2023-02-07T03:05:26;-2.50;99.90
17671;DHT22;8954;48.694;8.940;2023-02-07T03:07:40;-2.50;99.90
17671;DHT22;8954;48.694;8.940;2023-02-07T03:18:28;-2.80;99.90
17671;DHT22;8954;48.694;8.940;2023-02-07T03:21:19;-2.70;99.90
17671;DHT22;8954;48.694;8.940;2023-02-07T03:23:48;-2.80;99.90
17671;DHT22;8954;48.694;8.940;2023-02-07T03:26:16;-2.80;99.90
17671;DHT22;8954;48.694;8.940;2023-02-07T03:28:45;-2.70;99.90
17671;DHT22;8954;48.694;8.940;2023-02-07T03:31:13;-2.80;99.90
17671;DHT22;8954;48.694;8.940;2023-02-07T03:33:41;-2.80;99.90
17671;DHT22;8954;48.694;8.940;2023-02-07T03:36:14;-2.80;99.90
17671;DHT22;8954;48.694;8.940;2023-02-07T03:38:41;-2.90;99.90
17671;DHT22;8954;48.694;8.940;2023-02-07T03:41:26;-3.00;99.90
17671;DHT22;8954;48.694;8.940;2023-02-07T03:43:54;-2.90;99.90
17671;DHT22;8954;48.694;8.940;2023-02-07T03:46:22;-3.00;99.90
17671;DHT22;8954;48.694;8.940;2023-02-07T03:48:48;-3.10;99.90
17671;DHT22;8954;48.694;8.940;2023-02-07T03:51:13;-3.10;99.90
17671;DHT22;8954;48.694;8.940;2023-02-07T03:53:39;-3.20;99.90
17671;DHT22;8954;48.694;8.940;2023-02-07T03:56:04;-3.30;99.90
17671;DHT22;8954;48.694;8.940;2023-02-07T03:58:30;-3.30;99.90
17671;DHT22;8954;48.694;8.940;2023-02-07T04:00:56;-3.40;99.90
17671;DHT22;8954;48.694;8.940;2023-02-07T04:03:22;-3.40;99.90
17671;DHT22;8954;48.694;8.940;2023-02-07T04:05:47;-3.50;99.90
17671;DHT22;8954;48.694;8.940;2023-02-07T04:08:13;-3.60;99.90
17671;DHT22;8954;48.694;8.940;2023-02-07T04:10:39;-3.60;99.90
17671;DHT22;8954;48.694;8.940;2023-02-07T04:13:05;-3.50;99.90
17671;DHT22;8954;48.694;8.940;2023-02-07T04:15:30;-3.70;99.90
17671;DHT22;8954;48.694;8.940;2023-02-07T04:17:56;-3.50;99.90
17671;DHT22;8954;48.694;8.940;2023-02-07T04:20:21;-3.60;99.90
17671;DHT22;8954;48.694;8.940;2023-02-07T04:22:47;-3.60;99.90
17671;DHT22;8954;48.694;8.940;2023-02-07T04:25:12;-3.50;99.90
17671;DHT22;8954;48.694;8.940;2023-02-07T04:27:38;-3.60;99.90
17671;DHT22;8954;48.694;8.940;2023-02-07T04:30:04;-3.70;99.90
17671;DHT22;8954;48.694;8.940;2023-02-07T04:32:29;-3.70;99.90
17671;DHT22;8954;48.694;8.940;2023-02-07T04:34:55;-3.80;99.90
17671;DHT22;8954;48.694;8.940;2023-02-07T04:37:20;-3.90;99.90
17671;DHT22;8954;48.694;8.940;2023-02-07T04:39:46;-4.00;99.90
17671;DHT22;8954;48.694;8.940;2023-02-07T04:42:11;-4.00;99.90
17671;DHT22;8954;48.694;8.940;2023-02-07T04:44:37;-4.00;99.90
17671;DHT22;8954;48.694;8.940;2023-02-07T04:47:03;-4.00;99.90
17671;DHT22;8954;48.694;8.940;2023-02-07T04:49:28;-3.90;99.90
17671;DHT22;8954;48.694;8.940;2023-02-07T04:51:54;-4.10;99.90
17671;DHT22;8954;48.694;8.940;2023-02-07T04:54:20;-4.20;99.90
17671;DHT22;8954;48.694;8.940;2023-02-07T04:56:45;-4.10;99.90
17671;DHT22;8954;48.694;8.940;2023-02-07T04:59:11;-4.10;99.90
17671;DHT22;8954;48.694;8.940;2023-02-07T05:01:36;-4.10;99.90
17671;DHT22;8954;48.694;8.940;2023-02-07T05:04:02;-4.20;99.90
17671;DHT22;8954;48.694;8.940;2023-02-07T05:06:27;-4.30;99.90
17671;DHT22;8954;48.694;8.940;2023-02-07T05:08:53;-4.20;99.90
17671;DHT22;8954;48.694;8.940;2023-02-07T05:11:18;-4.10;99.90
17671;DHT22;8954;48.694;8.940;2023-02-07T05:13:44;-4.00;99.90
17671;DHT22;8954;48.694;8.940;2023-02-07T05:16:09;-4.10;99.90
17671;DHT22;8954;48.694;8.940;2023-02-07T05:18:35;-4.20;99.90
17671;DHT22;8954;48.694;8.940;2023-02-07T05:21:01;-4.30;99.90
17671;DHT22;8954;48.694;8.940;2023-02-07T05:23:26;-4.30;99.90
17671;DHT22;8954;48.694;8.940;2023-02-07T05:25:52;-4.30;99.90
17671;DHT22;8954;48.694;8.940;2023-02-07T05:28:17;-4.40;99.90
17671;DHT22;8954;48.694;8.940;2023-02-07T05:30:43;-4.40;99.90
17671;DHT22;8954;48.694;8.940;2023-02-07T05:33:09;-4.30;99.90
17671;DHT22;8954;48.694;8.940;2023-02-07T05:35:43;-4.50;99.90
17671;DHT22;8954;48.694;8.940;2023-02-07T05:38:11;-4.50;99.90
17671;DHT22;8954;48.694;8.940;2023-02-07T05:40:38;-4.60;99.90
17671;DHT22;8954;48.694;8.940;2023-02-07T05:43:05;-4.70;99.90
17671;DHT22;8954;48.694;8.940;2023-02-07T05:45:30;-4.50;99.90
17671;DHT22;8954;48.694;8.940;2023-02-07T05:47:56;-4.50;99.90
17671;DHT22;8954;48.694;8.940;2023-02-07T05:50:22;-4.60;99.90
17671;DHT22;8954;48.694;8.940;2023-02-07T05:52:48;-4.70;99.90
17671;DHT22;8954;48.694;8.940;2023-02-07T05:55:13;-4.70;99.90
17671;DHT22;8954;48.694;8.940;2023-02-07T05:57:41;-4.40;99.90
17671;DHT22;8954;48.694;8.940;2023-02-07T06:00:11;-4.30;99.90
17671;DHT22;8954;48.694;8.940;2023-02-07T06:02:38;-4.20;99.90
17671;DHT22;8954;48.694;8.940;2023-02-07T06:05:13;-4.10;99.90
17671;DHT22;8954;48.694;8.940;2023-02-07T06:07:39;-4.10;99.90
17671;DHT22;8954;48.694;8.940;2023-02-07T06:10:05;-4.20;99.90
17671;DHT22;8954;48.694;8.940;2023-02-07T06:12:32;-4.30;99.90
17671;DHT22;8954;48.694;8.940;2023-02-07T06:14:58;-4.30;99.90
17671;DHT22;8954;48.694;8.940;2023-02-07T06:17:24;-4.30;99.90
17671;DHT22;8954;48.694;8.940;2023-02-07T06:19:50;-4.40;99.90
17671;DHT22;8954;48.694;8.940;2023-02-07T06:22:16;-4.40;99.90
17671;DHT22;8954;48.694;8.940;2023-02-07T06:24:42;-4.30;99.90
17671;DHT22;8954;48.694;8.940;2023-02-07T06:27:07;-4.10;99.90
17671;DHT22;8954;48.694;8.940;2023-02-07T06:29:33;-4.00;99.90
17671;DHT22;8954;48.694;8.940;2023-02-07T06:31:58;-4.10;99.90
17671;DHT22;8954;48.694;8.940;2023-02-07T06:34:24;-4.30;99.90
17671;DHT22;8954;48.694;8.940;2023-02-07T06:36:49;-4.40;99.90
17671;DHT22;8954;48.694;8.940;2023-02-07T06:39:15;-4.60;99.90
17671;DHT22;8954;48.694;8.940;2023-02-07T06:41:40;-4.70;99.90
17671;DHT22;8954;48.694;8.940;2023-02-07T06:44:06;-4.70;99.90
17671;DHT22;8954;48.694;8.940;2023-02-07T06:46:32;-4.70;99.90
17671;DHT22;8954;48.694;8.940;2023-02-07T06:48:57;-4.80;99.90
17671;DHT22;8954;48.694;8.940;2023-02-07T06:51:23;-4.90;99.90
17671;DHT22;8954;48.694;8.940;2023-02-07T06:53:48;-5.00;99.90
17671;DHT22;8954;48.694;8.940;2023-02-07T06:56:14;-5.10;99.90
17671;DHT22;8954;48.694;8.940;2023-02-07T06:58:40;-5.20;99.90
17671;DHT22;8954;48.694;8.940;2023-02-07T07:01:05;-5.20;99.90
17671;DHT22;8954;48.694;8.940;2023-02-07T07:03:31;-5.20;99.90
17671;DHT22;8954;48.694;8.940;2023-02-07T07:05:57;-5.00;99.90
17671;DHT22;8954;48.694;8.940;2023-02-07T07:08:24;-5.10;99.90
17671;DHT22;8954;48.694;8.940;2023-02-07T07:10:50;-5.10;99.90
17671;DHT22;8954;48.694;8.940;2023-02-07T07:13:16;-5.20;99.90
17671;DHT22;8954;48.694;8.940;2023-02-07T07:15:41;-5.10;99.90
17671;DHT22;8954;48.694;8.940;2023-02-07T07:18:07;-5.00;99.90
17671;DHT22;8954;48.694;8.940;2023-02-07T07:20:33;-5.10;99.90
17671;DHT22;8954;48.694;8.940;2023-02-07T07:22:58;-5.10;99.90
17671;DHT22;8954;48.694;8.940;2023-02-07T07:25:24;-5.00;99.90
17671;DHT22;8954;48.694;8.940;2023-02-07T07:27:51;-4.90;99.90
17671;DHT22;8954;48.694;8.940;2023-02-07T07:30:16;-4.90;99.90
17671;DHT22;8954;48.694;8.940;2023-02-07T07:32:42;-4.60;99.90
17671;DHT22;8954;48.694;8.940;2023-02-07T07:35:08;-4.50;99.90
17671;DHT22;8954;48.694;8.940;2023-02-07T07:37:33;-4.50;99.90
17671;DHT22;8954;48.694;8.940;2023-02-07T07:39:59;-4.50;99.90
17671;DHT22;8954;48.694;8.940;2023-02-07T07:42:25;-4.50;99.90
17671;DHT22;8954;48.694;8.940;2023-02-07T07:44:50;-4.50;99.90
17671;DHT22;8954;48.694;8.940;2023-02-07T07:47:16;-4.40;99.90
17671;DHT22;8954;48.694;8.940;2023-02-07T07:49:44;-4.30;99.90
17671;DHT22;8954;48.694;8.940;2023-02-07T07:52:10;-4.30;99.90
17671;DHT22;8954;48.694;8.940;2023-02-07T07:54:35;-4.10;99.90
17671;DHT22;8954;48.694;8.940;2023-02-07T07:57:01;-3.90;99.90
17671;DHT22;8954;48.694;8.940;2023-02-07T07:59:27;-3.80;99.90
17671;DHT22;8954;48.694;8.940;2023-02-07T08:01:52;-3.70;99.90
17671;DHT22;8954;48.694;8.940;2023-02-07T08:04:18;-3.60;99.90
17671;DHT22;8954;48.694;8.940;2023-02-07T08:06:43;-3.50;99.90
17671;DHT22;8954;48.694;8.940;2023-02-07T08:09:10;-3.40;99.90
17671;DHT22;8954;48.694;8.940;2023-02-07T08:11:35;-3.40;99.90
17671;DHT22;8954;48.694;8.940;2023-02-07T08:14:01;-3.20;99.90
17671;DHT22;8954;48.694;8.940;2023-02-07T08:16:26;-3.10;99.90
17671;DHT22;8954;48.694;8.940;2023-02-07T08:18:52;-3.10;99.90
17671;DHT22;8954;48.694;8.940;2023-02-07T08:21:17;-3.00;99.90
17671;DHT22;8954;48.694;8.940;2023-02-07T08:23:43;-2.90;99.90
17671;DHT22;8954;48.694;8.940;2023-02-07T08:26:09;-2.90;99.90
17671;DHT22;8954;48.694;8.940;2023-02-07T08:28:34;-2.80;99.90
17671;DHT22;8954;48.694;8.940;2023-02-07T08:31:01;-2.70;99.90
17671;DHT22;8954;48.694;8.940;2023-02-07T08:33:27;-2.50;99.90
17671;DHT22;8954;48.694;8.940;2023-02-07T08:35:53;-2.40;99.90
17671;DHT22;8954;48.694;8.940;2023-02-07T08:38:18;-2.20;99.90
17671;DHT22;8954;48.694;8.940;2023-02-07T08:40:44;-2.10;99.90
17671;DHT22;8954;48.694;8.940;2023-02-07T08:43:11;-2.10;99.90
17671;DHT22;8954;48.694;8.940;2023-02-07T08:45:41;-2.10;99.90
17671;DHT22;8954;48.694;8.940;2023-02-07T08:48:08;-2.00;99.90
17671;DHT22;8954;48.694;8.940;2023-02-07T08:50:33;-2.00;99.90
17671;DHT22;8954;48.694;8.940;2023-02-07T08:52:59;-1.90;99.90
17671;DHT22;8954;48.694;8.940;2023-02-07T08:55:24;-1.90;99.90
17671;DHT22;8954;48.694;8.940;2023-02-07T08:57:50;-1.90;99.90
17671;DHT22;8954;48.694;8.940;2023-02-07T09:00:16;-1.80;99.90
17671;DHT22;8954;48.694;8.940;2023-02-07T09:02:41;-1.70;99.90
17671;DHT22;8954;48.694;8.940;2023-02-07T09:05:08;-1.50;99.90
17671;DHT22;8954;48.694;8.940;2023-02-07T09:07:33;-1.30;99.90
17671;DHT22;8954;48.694;8.940;2023-02-07T09:09:59;-0.60;99.90
17671;DHT22;8954;48.694;8.940;2023-02-07T09:12:24;0.70;99.90
17671;DHT22;8954;48.694;8.940;2023-02-07T09:14:53;2.60;99.90
17671;DHT22;8954;48.694;8.940;2023-02-07T09:17:18;3.90;99.90
17671;DHT22;8954;48.694;8.940;2023-02-07T09:19:44;5.20;99.90
17671;DHT22;8954;48.694;8.940;2023-02-07T09:24:35;7.80;98.10
17671;DHT22;8954;48.694;8.940;2023-02-07T09:27:01;8.70;95.30
17671;DHT22;8954;48.694;8.940;2023-02-07T09:29:27;10.00;92.50
17671;DHT22;8954;48.694;8.940;2023-02-07T09:31:52;10.20;90.30
17671;DHT22;8954;48.694;8.940;2023-02-07T09:34:18;9.60;88.00
17671;DHT22;8954;48.694;8.940;2023-02-07T09:36:44;9.60;87.60
17671;DHT22;8954;48.694;8.940;2023-02-07T09:39:10;9.60;87.80
17671;DHT22;8954;48.694;8.940;2023-02-07T09:41:55;10.20;87.10
17671;DHT22;8954;48.694;8.940;2023-02-07T09:44:53;10.90;82.40
17671;DHT22;8954;48.694;8.940;2023-02-07T09:47:23;11.40;81.00
17671;DHT22;8954;48.694;8.940;2023-02-07T09:49:59;11.90;78.20
17671;DHT22;8954;48.694;8.940;2023-02-07T09:52:32;11.70;79.30
17671;DHT22;8954;48.694;8.940;2023-02-07T09:54:59;12.20;73.50
17671;DHT22;8954;48.694;8.940;2023-02-07T09:57:36;11.40;73.50
17671;DHT22;8954;48.694;8.940;2023-02-07T10:00:33;12.20;72.30
17671;DHT22;8954;48.694;8.940;2023-02-07T10:03:14;11.50;73.60
17671;DHT22;8954;48.694;8.940;2023-02-07T10:08:17;12.00;72.70
17671;DHT22;8954;48.694;8.940;2023-02-07T10:10:56;11.80;73.30
17671;DHT22;8954;48.694;8.940;2023-02-07T10:13:45;12.90;71.10
17671;DHT22;8954;48.694;8.940;2023-02-07T10:16:58;12.40;70.50
17671;DHT22;8954;48.694;8.940;2023-02-07T10:19:56;12.30;71.40
17671;DHT22;8954;48.694;8.940;2023-02-07T10:22:48;13.40;68.00
17671;DHT22;8954;48.694;8.940;2023-02-07T10:25:18;12.30;69.40
17671;DHT22;8954;48.694;8.940;2023-02-07T10:28:00;12.60;70.10
17671;DHT22;8954;48.694;8.940;2023-02-07T10:30:32;13.50;67.50
17671;DHT22;8954;48.694;8.940;2023-02-07T10:33:32;13.20;68.20
17671;DHT22;8954;48.694;8.940;2023-02-07T10:36:15;12.90;68.40
17671;DHT22;8954;48.694;8.940;2023-02-07T10:41:20;12.80;69.00
17671;DHT22;8954;48.694;8.940;2023-02-07T10:43:47;14.00;66.80
17671;DHT22;8954;48.694;8.940;2023-02-07T10:46:15;15.10;65.00
17671;DHT22;8954;48.694;8.940;2023-02-07T10:48:44;15.30;62.90
17671;DHT22;8954;48.694;8.940;2023-02-07T10:51:33;14.90;63.70
17671;DHT22;8954;48.694;8.940;2023-02-07T10:54:10;14.90;63.20
17671;DHT22;8954;48.694;8.940;2023-02-07T10:56:53;14.20;65.40
17671;DHT22;8954;48.694;8.940;2023-02-07T10:59:43;14.70;63.10
17671;DHT22;8954;48.694;8.940;2023-02-07T11:04:53;14.60;64.70
17671;DHT22;8954;48.694;8.940;2023-02-07T11:07:20;14.10;63.70
17671;DHT22;8954;48.694;8.940;2023-02-07T11:09:46;14.10;64.30
17671;DHT22;8954;48.694;8.940;2023-02-07T11:12:21;15.10;62.30
17671;DHT22;8954;48.694;8.940;2023-02-07T11:15:15;14.40;64.10
17671;DHT22;8954;48.694;8.940;2023-02-07T11:18:19;15.20;62.70
17671;DHT22;8954;48.694;8.940;2023-02-07T11:20:49;16.20;60.30
17671;DHT22;8954;48.694;8.940;2023-02-07T11:23:17;16.30;59.40
17671;DHT22;8954;48.694;8.940;2023-02-07T11:25:45;16.00;57.90
17671;DHT22;8954;48.694;8.940;2023-02-07T11:28:26;15.20;61.20
17671;DHT22;8954;48.694;8.940;2023-02-07T11:31:08;16.20;58.50
17671;DHT22;8954;48.694;8.940;2023-02-07T11:33:35;15.90;58.60
17671;DHT22;8954;48.694;8.940;2023-02-07T11:36:23;15.50;58.60
17671;DHT22;8954;48.694;8.940;2023-02-07T11:38:58;16.30;56.30
17671;DHT22;8954;48.694;8.940;2023-02-07T11:41:29;15.10;59.50
17671;DHT22;8954;48.694;8.940;2023-02-07T11:44:16;14.70;60.30
17671;DHT22;8954;48.694;8.940;2023-02-07T11:46:45;15.20;57.10
17671;DHT22;8954;48.694;8.940;2023-02-07T11:49:27;15.60;56.10
17671;DHT22;8954;48.694;8.940;2023-02-07T11:52:00;15.60;56.30
17671;DHT22;8954;48.694;8.940;2023-02-07T11:54:26;15.50;58.60
17671;DHT22;8954;48.694;8.940;2023-02-07T11:57:02;15.90;57.10
17671;DHT22;8954;48.694;8.940;2023-02-07T11:59:29;16.40;54.10
17671;DHT22;8954;48.694;8.940;2023-02-07T12:01:58;16.00;55.20
17671;DHT22;8954;48.694;8.940;2023-02-07T12:04:37;15.30;55.30
17671;DHT22;8954;48.694;8.940;2023-02-07T12:10:02;15.50;54.90
17671;DHT22;8954;48.694;8.940;2023-02-07T12:12:45;15.40;55.30
17671;DHT22;8954;48.694;8.940;2023-02-07T12:15:27;14.90;55.80
17671;DHT22;8954;48.694;8.940;2023-02-07T12:18:06;15.20;55.00
17671;DHT22;8954;48.694;8.940;2023-02-07T12:20:49;15.10;53.80
17671;DHT22;8954;48.694;8.940;2023-02-07T12:26:06;15.30;54.80
17671;DHT22;8954;48.694;8.940;2023-02-07T12:28:49;16.00;52.70
17671;DHT22;8954;48.694;8.940;2023-02-07T12:31:25;15.80;52.90
17671;DHT22;8954;48.694;8.940;2023-02-07T12:34:01;14.90;52.10
17671;DHT22;8954;48.694;8.940;2023-02-07T12:36:35;15.10;52.90
17671;DHT22;8954;48.694;8.940;2023-02-07T12:39:12;15.20;52.80
17671;DHT22;8954;48.694;8.940;2023-02-07T12:44:32;16.90;50.50
17671;DHT22;8954;48.694;8.940;2023-02-07T12:47:41;16.90;50.70
17671;DHT22;8954;48.694;8.940;2023-02-07T12:53:21;15.50;48.50
17671;DHT22;8954;48.694;8.940;2023-02-07T12:56:01;15.00;49.80
17671;DHT22;8954;48.694;8.940;2023-02-07T13:10:14;14.80;49.40
17671;DHT22;8954;48.694;8.940;2023-02-07T13:12:55;13.80;50.10
17671;DHT22;8954;48.694;8.940;2023-02-07T13:15:33;12.90;52.90
17671;DHT22;8954;48.694;8.940;2023-02-07T13:23:24;13.80;52.00
17671;DHT22;8954;48.694;8.940;2023-02-07T13:25:57;14.90;50.00
17671;DHT22;8954;48.694;8.940;2023-02-07T13:31:08;15.90;49.10
17671;DHT22;8954;48.694;8.940;2023-02-07T13:33:37;14.70;49.70
17671;DHT22;8954;48.694;8.940;2023-02-07T13:38:58;15.70;50.50
17671;DHT22;8954;48.694;8.940;2023-02-07T13:41:33;14.30;51.50
17671;DHT22;8954;48.694;8.940;2023-02-07T13:44:05;13.20;51.50
17671;DHT22;8954;48.694;8.940;2023-02-07T13:52:09;11.50;54.30
17671;DHT22;8954;48.694;8.940;2023-02-07T14:00:22;9.90;58.20
17671;DHT22;8954;48.694;8.940;2023-02-07T14:05:38;9.20;59.20
17671;DHT22;8954;48.694;8.940;2023-02-07T14:10:58;8.90;60.40
17671;DHT22;8954;48.694;8.940;2023-02-07T14:13:36;9.80;59.40
17671;DHT22;8954;48.694;8.940;2023-02-07T14:16:11;12.40;53.90
17671;DHT22;8954;48.694;8.940;2023-02-07T14:31:58;9.50;57.00
17671;DHT22;8954;48.694;8.940;2023-02-07T14:34:31;8.00;58.50
17671;DHT22;8954;48.694;8.940;2023-02-07T14:37:21;6.60;59.40
17671;DHT22;8954;48.694;8.940;2023-02-07T14:43:14;5.10;64.50
17671;DHT22;8954;48.694;8.940;2023-02-07T14:53:43;4.10;69.10
17671;DHT22;8954;48.694;8.940;2023-02-07T14:56:38;3.90;69.70
17671;DHT22;8954;48.694;8.940;2023-02-07T14:59:07;3.80;67.10
17671;DHT22;8954;48.694;8.940;2023-02-07T15:01:34;3.60;67.60
17671;DHT22;8954;48.694;8.940;2023-02-07T15:04:01;3.50;67.60
17671;DHT22;8954;48.694;8.940;2023-02-07T15:06:27;3.40;68.70
17671;DHT22;8954;48.694;8.940;2023-02-07T15:09:00;3.40;66.80
17671;DHT22;8954;48.694;8.940;2023-02-07T15:11:28;3.30;69.00
17671;DHT22;8954;48.694;8.940;2023-02-07T15:13:59;3.20;70.20
17671;DHT22;8954;48.694;8.940;2023-02-07T15:16:30;3.00;68.80
17671;DHT22;8954;48.694;8.940;2023-02-07T15:19:07;2.90;69.70
17671;DHT22;8954;48.694;8.940;2023-02-07T15:21:40;2.80;70.50
17671;DHT22;8954;48.694;8.940;2023-02-07T15:24:07;2.80;71.00
17671;DHT22;8954;48.694;8.940;2023-02-07T15:26:38;2.70;69.60
17671;DHT22;8954;48.694;8.940;2023-02-07T15:29:06;2.70;68.30
17671;DHT22;8954;48.694;8.940;2023-02-07T15:31:41;2.60;69.00
17671;DHT22;8954;48.694;8.940;2023-02-07T15:34:19;2.60;70.00
17671;DHT22;8954;48.694;8.940;2023-02-07T15:36:48;2.50;70.80
17671;DHT22;8954;48.694;8.940;2023-02-07T15:39:17;2.50;70.40
17671;DHT22;8954;48.694;8.940;2023-02-07T15:41:45;2.40;69.10
17671;DHT22;8954;48.694;8.940;2023-02-07T15:44:26;2.30;68.20
17671;DHT22;8954;48.694;8.940;2023-02-07T15:47:06;2.30;69.40
17671;DHT22;8954;48.694;8.940;2023-02-07T15:49:40;2.20;68.60
17671;DHT22;8954;48.694;8.940;2023-02-07T15:52:26;2.20;69.00
17671;DHT22;8954;48.694;8.940;2023-02-07T15:54:54;2.10;69.30
17671;DHT22;8954;48.694;8.940;2023-02-07T15:57:26;2.10;69.70
17671;DHT22;8954;48.694;8.940;2023-02-07T15:59:54;2.00;70.60
17671;DHT22;8954;48.694;8.940;2023-02-07T16:02:29;1.90;71.50
17671;DHT22;8954;48.694;8.940;2023-02-07T16:04:57;1.80;71.80
17671;DHT22;8954;48.694;8.940;2023-02-07T16:07:23;1.80;73.00
17671;DHT22;8954;48.694;8.940;2023-02-07T16:09:50;1.70;73.00
17671;DHT22;8954;48.694;8.940;2023-02-07T16:12:31;1.60;73.90
17671;DHT22;8954;48.694;8.940;2023-02-07T16:15:01;1.50;74.30
17671;DHT22;8954;48.694;8.940;2023-02-07T16:17:39;1.50;76.00
17671;DHT22;8954;48.694;8.940;2023-02-07T16:20:08;1.40;77.50
17671;DHT22;8954;48.694;8.940;2023-02-07T16:22:33;1.30;78.10
17671;DHT22;8954;48.694;8.940;2023-02-07T16:25:02;1.40;76.80
17671;DHT22;8954;48.694;8.940;2023-02-07T16:27:29;1.30;77.70
17671;DHT22;8954;48.694;8.940;2023-02-07T16:29:59;1.30;78.20
17671;DHT22;8954;48.694;8.940;2023-02-07T16:32:29;1.20;79.10
17671;DHT22;8954;48.694;8.940;2023-02-07T16:34:55;1.00;79.50
17671;DHT22;8954;48.694;8.940;2023-02-07T16:37:21;0.90;79.50
17671;DHT22;8954;48.694;8.940;2023-02-07T16:39:46;0.90;79.70
17671;DHT22;8954;48.694;8.940;2023-02-07T16:42:14;0.80;80.10
17671;DHT22;8954;48.694;8.940;2023-02-07T16:44:41;0.80;81.00
17671;DHT22;8954;48.694;8.940;2023-02-07T16:47:06;0.60;81.80
17671;DHT22;8954;48.694;8.940;2023-02-07T16:49:32;0.60;82.10
17671;DHT22;8954;48.694;8.940;2023-02-07T16:51:58;0.50;82.60
